Gleneden Beach, Oregon
Current Conditions -  °F | °C
As of 5:15 AM on Friday 28 Nov 2014 (Local Time) from KONP Reporting Station
Moderate Rain Moderate Rain  
Wind Chill: 55°   Ceiling: 400
Heat Index: 55°   Visibility: 2mi
Dew Point: 54°   Wind: 22mph
Humidity: 94%   Direction: 210°SSW
Pressure: 29.73"   Gusts: 30mph
Location:  44.88°N, 124.03°W
Report Text: KONP 281315Z AUTO 21019G26KT 2SM RA OVC004 13/12 A2973 RMK AO2 P0001
Loading
Personal Weather Stations






























Interactive Weather Map New forecast layout! Learn more

10-Day Weather Forecast

Advertisements
Track Severe Weather on mobile